Time;durP1;ratioP1;P1;durP2;ratioP2;P2;SDS_P1;SDS_P2;PMS_P1;PMS_P2;Temp;Humidity;BMP_temperature;BMP_pressure;BME280_temperature;BME280_humidity;BME280_pressure;Samples;Min_cycle;Max_cycle;Signal;HPM_P1;HPM_P2
2023/06/18 00:01:06;;;;;;;;;21.33;20.33;;;;;26.40;42.50;100575.97;4978095;28;45324;-72
2023/06/18 00:03:32;;;;;;;;;17.67;17.67;;;;;26.36;42.69;100560.13;4977399;28;45487;-73
2023/06/18 00:05:59;;;;;;;;;17.00;15.33;;;;;26.40;42.40;100571.34;4978046;28;45180;-71
2023/06/18 00:08:24;;;;;;;;;16.33;16.33;;;;;26.42;42.68;100568.34;4977762;28;46443;-72
2023/06/18 00:10:50;;;;;;;;;16.67;16.67;;;;;26.36;42.36;100559.28;4977623;28;45231;-73
2023/06/18 00:13:16;;;;;;;;;18.33;17.00;;;;;26.43;42.55;100564.53;4977964;28;45896;-74
2023/06/18 00:15:41;;;;;;;;;21.00;19.33;;;;;26.40;42.27;100563.16;4978305;28;45538;-72
2023/06/18 00:18:07;;;;;;;;;19.00;16.33;;;;;26.24;42.74;100540.31;4977794;28;45276;-71
2023/06/18 00:20:36;;;;;;;;;16.33;16.33;;;;;25.94;42.51;100490.84;4977661;28;45360;-71
2023/06/18 00:23:02;;;;;;;;;16.67;16.67;;;;;26.35;43.63;100561.19;4977513;28;45489;-72
2023/06/18 00:25:27;;;;;;;;;15.67;15.67;;;;;26.35;42.56;100566.66;4960694;28;45232;-72
2023/06/18 00:27:53;;;;;;;;;16.33;16.33;;;;;26.30;42.67;100552.94;4977658;28;45608;-72
2023/06/18 00:30:19;;;;;;;;;22.00;20.00;;;;;26.35;42.42;100558.47;4976160;28;45448;-72
2023/06/18 00:32:44;;;;;;;;;18.67;16.67;;;;;26.32;43.11;100553.50;4977812;28;45346;-71
2023/06/18 00:35:14;;;;;;;;;22.67;19.33;;;;;26.31;42.46;100546.41;4978039;28;45428;-71
2023/06/18 00:37:43;;;;;;;;;19.33;17.33;;;;;26.31;42.91;100543.66;4977169;28;45629;-71
2023/06/18 00:40:13;;;;;;;;;20.67;18.33;;;;;26.28;42.59;100552.34;4977344;28;45247;-71
2023/06/18 00:42:39;;;;;;;;;18.00;18.00;;;;;26.41;44.60;100561.25;4976146;28;45429;-71
2023/06/18 00:45:09;;;;;;;;;20.00;19.67;;;;;26.29;44.33;100555.91;4977767;28;45497;-71
2023/06/18 00:47:44;;;;;;;;;14.67;14.67;;;;;26.17;43.00;100550.56;4977473;28;45372;-72
2023/06/18 00:50:16;;;;;;;;;21.00;21.00;;;;;26.19;43.05;100569.38;4959690;28;45900;-71
2023/06/18 00:52:47;;;;;;;;;16.33;16.33;;;;;26.30;43.29;100591.09;4977040;28;45283;-72
2023/06/18 00:55:16;;;;;;;;;19.00;17.67;;;;;25.96;45.41;100544.00;4977499;28;45343;-72
2023/06/18 00:57:49;;;;;;;;;13.33;13.00;;;;;26.27;46.04;100621.56;4977167;28;45721;-72
2023/06/18 01:00:16;;;;;;;;;21.67;21.67;;;;;26.28;46.32;100628.66;4977265;28;45416;-71
2023/06/18 01:02:45;;;;;;;;;20.67;19.33;;;;;26.26;47.06;100625.38;4977066;28;45188;-72
2023/06/18 01:05:13;;;;;;;;;24.00;24.00;;;;;26.14;48.28;100621.09;4977440;28;45595;-71
2023/06/18 01:07:39;;;;;;;;;21.00;21.00;;;;;26.05;50.06;100626.16;4976754;28;46438;-71
2023/06/18 01:10:05;;;;;;;;;25.67;23.33;;;;;26.07;51.48;100618.53;4977000;28;45539;-72
2023/06/18 01:12:31;;;;;;;;;21.67;21.67;;;;;26.04;52.10;100610.88;4959641;28;45493;-72
2023/06/18 01:14:57;;;;;;;;;20.67;19.00;;;;;26.03;52.87;100614.69;4959492;28;45616;-71
2023/06/18 01:17:29;;;;;;;;;24.00;22.00;;;;;26.04;53.33;100632.66;4980217;28;45634;-72
2023/06/18 01:20:00;;;;;;;;;22.00;22.00;;;;;25.95;54.15;100624.06;4980378;28;45398;-70
2023/06/18 01:22:37;;;;;;;;;20.67;18.33;;;;;26.00;55.79;100629.59;4962707;28;45529;-71
2023/06/18 01:25:05;;;;;;;;;23.00;20.33;;;;;25.83;56.29;100606.16;4980645;28;45373;-71
2023/06/18 01:27:33;;;;;;;;;21.67;19.67;;;;;25.82;55.60;100601.78;4962946;28;46997;-72
2023/06/18 01:30:00;;;;;;;;;17.67;16.33;;;;;25.83;54.59;100614.31;4978978;28;45398;-71
2023/06/18 01:32:27;;;;;;;;;19.33;19.00;;;;;25.75;57.01;100586.44;4962800;28;45465;-71
2023/06/18 01:34:57;;;;;;;;;15.33;13.33;;;;;25.82;55.86;100590.88;4980494;28;45486;-71
2023/06/18 01:37:54;;;;;;;;;15.00;14.67;;;;;25.80;55.23;100576.69;4962259;28;47536;-70
2023/06/18 01:40:39;;;;;;;;;16.33;16.33;;;;;25.74;53.96;100579.34;4936575;28;45286;-72
2023/06/18 01:43:21;;;;;;;;;20.67;18.00;;;;;25.64;54.67;100568.28;4979967;28;45484;-72
2023/06/18 01:46:06;;;;;;;;;16.33;15.33;;;;;25.56;55.05;100565.13;4980525;28;45231;-71
2023/06/18 01:48:36;;;;;;;;;12.67;11.00;;;;;25.48;55.14;100563.66;4979900;28;47985;-71
2023/06/18 01:51:04;;;;;;;;;18.00;15.33;;;;;25.42;54.99;100564.59;4979711;28;45333;-71
2023/06/18 01:53:32;;;;;;;;;15.67;15.67;;;;;25.48;56.19;100571.81;4980094;28;45324;-72
2023/06/18 01:55:59;;;;;;;;;19.00;17.00;;;;;25.48;57.92;100574.53;4980367;28;45429;-71
2023/06/18 01:58:25;;;;;;;;;17.67;16.33;;;;;25.49;56.79;100576.19;4979946;28;46276;-72
2023/06/18 02:00:52;;;;;;;;;16.33;16.33;;;;;25.37;56.90;100567.25;4979969;28;45263;-73
2023/06/18 02:03:19;;;;;;;;;13.00;12.67;;;;;25.50;57.93;100583.28;4979999;28;45375;-72
2023/06/18 02:05:45;;;;;;;;;17.33;15.33;;;;;25.52;57.63;100586.56;4978542;28;45740;-73
2023/06/18 02:08:10;;;;;;;;;16.00;14.67;;;;;25.52;58.63;100594.75;4980145;28;46083;-73
2023/06/18 02:10:36;;;;;;;;;11.00;11.00;;;;;25.49;59.00;100595.25;4979677;28;45437;-70
2023/06/18 02:13:01;;;;;;;;;14.67;14.67;;;;;25.40;57.54;100580.34;4979920;28;45442;-73
2023/06/18 02:15:27;;;;;;;;;15.00;13.67;;;;;25.12;57.13;100548.59;4963875;28;45224;-71
2023/06/18 02:17:52;;;;;;;;;16.00;14.00;;;;;25.33;56.32;100610.47;4981883;28;46642;-70
2023/06/18 02:20:18;;;;;;;;;14.33;13.00;;;;;25.17;56.80;100590.31;4979920;28;45541;-72
2023/06/18 02:22:44;;;;;;;;;21.33;16.33;;;;;25.27;57.27;100606.00;4962140;28;45300;-70
2023/06/18 02:25:10;;;;;;;;;16.00;15.67;;;;;25.27;56.21;100594.28;4980391;28;45385;-72
2023/06/18 02:27:35;;;;;;;;;18.33;16.33;;;;;25.26;57.83;100581.75;4979786;28;46435;-71
2023/06/18 02:30:02;;;;;;;;;13.33;13.33;;;;;25.23;57.04;100571.34;4979816;28;45472;-73
2023/06/18 02:32:28;;;;;;;;;14.67;13.67;;;;;25.29;57.30;100570.38;4979373;28;45542;-71
2023/06/18 02:34:55;;;;;;;;;18.00;15.33;;;;;25.32;58.29;100576.16;4979684;28;45363;-70
2023/06/18 02:37:20;;;;;;;;;16.00;16.00;;;;;25.34;59.57;100578.63;4978806;28;45938;-71
2023/06/18 02:39:45;;;;;;;;;14.67;14.00;;;;;25.36;57.41;100573.75;4979136;28;45359;-72
2023/06/18 02:42:11;;;;;;;;;13.33;13.33;;;;;25.23;56.10;100550.44;4979408;28;45354;-71
2023/06/18 02:44:39;;;;;;;;;18.33;16.67;;;;;25.17;56.77;100552.22;4979380;28;45541;-71
2023/06/18 02:47:05;;;;;;;;;19.67;18.67;;;;;25.06;58.80;100522.38;4979333;28;46870;-72
2023/06/18 02:49:31;;;;;;;;;16.67;14.67;;;;;25.25;57.21;100561.88;4977968;28;45552;-71
2023/06/18 02:51:56;;;;;;;;;16.67;15.67;;;;;25.41;58.21;100576.56;4978860;28;45525;-70
2023/06/18 02:54:22;;;;;;;;;15.00;15.00;;;;;25.39;59.13;100576.00;4979065;28;45537;-73
2023/06/18 02:56:47;;;;;;;;;17.33;17.33;;;;;25.46;58.24;100582.13;4978381;28;59013;-73
2023/06/18 02:59:12;;;;;;;;;18.00;17.00;;;;;25.40;55.87;100572.19;4978814;28;45243;-72
2023/06/18 03:01:38;;;;;;;;;16.67;15.67;;;;;25.25;54.99;100563.78;4979124;28;45342;-71
2023/06/18 03:04:03;;;;;;;;;16.67;15.33;;;;;25.28;56.28;100568.75;4979042;28;45448;-72
2023/06/18 03:06:28;;;;;;;;;19.33;17.00;;;;;25.30;55.79;100585.63;4978396;28;46031;-72
2023/06/18 03:08:54;;;;;;;;;17.67;17.67;;;;;25.08;54.91;100545.53;4979079;28;45417;-72
2023/06/18 03:11:19;;;;;;;;;16.33;16.33;;;;;25.31;55.15;100584.56;4979044;28;45714;-72
2023/06/18 03:13:45;;;;;;;;;17.33;15.67;;;;;25.32;55.49;100587.03;4961294;28;45408;-72
2023/06/18 03:16:10;;;;;;;;;18.33;18.33;;;;;25.04;56.40;100536.22;4978983;28;46182;-72
2023/06/18 03:18:37;;;;;;;;;18.33;17.33;;;;;25.24;55.36;100578.47;4978604;28;45322;-72
2023/06/18 03:21:03;;;;;;;;;13.33;11.33;;;;;25.05;55.02;100546.03;4978616;28;45359;-71
2023/06/18 03:23:28;;;;;;;;;13.33;13.33;;;;;25.18;54.02;100583.78;4978786;28;45489;-71
2023/06/18 03:25:53;;;;;;;;;9.33;9.33;;;;;25.14;54.65;100589.97;4978392;28;45228;-72
2023/06/18 03:28:18;;;;;;;;;14.33;12.33;;;;;25.07;53.91;100579.25;4978639;28;53686;-72
2023/06/18 03:30:44;;;;;;;;;13.00;13.00;;;;;25.13;54.03;100594.59;4978640;28;45202;-72
2023/06/18 03:33:10;;;;;;;;;13.67;12.33;;;;;25.06;53.72;100584.94;4978968;28;45212;-73
2023/06/18 03:35:37;;;;;;;;;13.00;13.00;;;;;25.06;53.85;100583.03;4960992;28;47515;-71
2023/06/18 03:38:03;;;;;;;;;13.67;13.33;;;;;24.96;53.89;100585.50;4977100;28;45449;-72
2023/06/18 03:40:28;;;;;;;;;10.33;8.33;;;;;24.70;53.63;100540.69;4978589;28;45341;-73
2023/06/18 03:42:54;;;;;;;;;10.67;10.67;;;;;24.84;54.08;100568.44;4978713;28;45384;-71
2023/06/18 03:45:19;;;;;;;;;9.33;8.33;;;;;25.07;53.01;100605.63;4978361;28;45883;-71
2023/06/18 03:47:44;;;;;;;;;10.67;9.67;;;;;25.05;53.13;100605.88;4978445;28;45470;-71
2023/06/18 03:50:10;;;;;;;;;10.00;7.67;;;;;25.09;53.01;100604.31;4979142;28;45385;-70
2023/06/18 03:52:35;;;;;;;;;8.67;8.67;;;;;25.11;52.30;100604.06;4978273;28;45234;-72
2023/06/18 03:55:01;;;;;;;;;8.33;8.33;;;;;25.12;53.06;100616.59;4978066;28;47792;-71
2023/06/18 03:57:26;;;;;;;;;6.00;5.00;;;;;25.02;51.43;100592.72;4977702;28;60462;-71
2023/06/18 03:59:51;;;;;;;;;4.50;4.50;;;;;25.02;51.36;100595.44;4977985;28;52660;-71
2023/06/18 04:02:17;;;;;;;;;5.67;5.67;;;;;24.95;52.05;100580.31;4961019;28;45357;-72
2023/06/18 04:04:44;;;;;;;;;8.67;6.33;;;;;24.99;52.25;100592.38;4978010;28;46414;-72
2023/06/18 04:07:10;;;;;;;;;5.00;5.00;;;;;25.04;52.71;100597.94;4977794;28;45251;-71
2023/06/18 04:09:35;;;;;;;;;6.00;6.00;;;;;24.98;52.08;100586.09;4978593;28;45195;-72
2023/06/18 04:12:01;;;;;;;;;3.67;3.67;;;;;24.98;51.57;100577.09;4978586;28;45522;-71
2023/06/18 04:14:27;;;;;;;;;4.33;4.33;;;;;25.00;51.62;100589.44;4977626;28;57134;-72
2023/06/18 04:16:52;;;;;;;;;6.00;4.33;;;;;24.97;51.37;100587.16;4977953;28;45351;-72
2023/06/18 04:19:17;;;;;;;;;5.67;4.33;;;;;24.95;51.73;100583.88;4960224;28;45500;-72
2023/06/18 04:21:43;;;;;;;;;5.00;5.00;;;;;24.85;51.84;100562.75;4978049;28;45363;-71
2023/06/18 04:24:08;;;;;;;;;6.67;5.33;;;;;24.99;51.44;100593.22;4977709;28;47586;-71
2023/06/18 04:26:33;;;;;;;;;7.67;6.00;;;;;24.98;51.29;100582.56;4977859;28;45431;-70
2023/06/18 04:28:59;;;;;;;;;5.00;4.67;;;;;24.86;51.49;100569.84;4960352;28;45326;-71
2023/06/18 04:31:25;;;;;;;;;6.00;6.00;;;;;24.84;51.74;100569.25;4978367;28;45471;-72
2023/06/18 04:33:50;;;;;;;;;5.00;5.00;;;;;24.96;51.11;100587.41;4977762;28;45678;-72
2023/06/18 04:36:15;;;;;;;;;3.67;3.67;;;;;24.98;52.41;100598.88;4977397;28;45457;-72
2023/06/18 04:38:41;;;;;;;;;4.33;4.33;;;;;24.99;51.64;100592.38;4977723;28;45361;-70
2023/06/18 04:41:06;;;;;;;;;5.00;5.00;;;;;24.96;51.65;100598.28;4978090;28;45196;-71
2023/06/18 04:43:32;;;;;;;;;6.67;5.00;;;;;24.94;51.90;100592.28;4977517;28;46647;-72
2023/06/18 04:45:58;;;;;;;;;4.00;3.33;;;;;24.95;51.65;100602.91;4977696;28;45943;-71
2023/06/18 04:48:23;;;;;;;;;5.00;5.00;;;;;24.84;51.52;100577.41;4977545;28;48053;-72
2023/06/18 04:50:49;;;;;;;;;4.67;4.67;;;;;24.95;51.33;100604.81;4977610;28;45548;-71
2023/06/18 04:53:14;;;;;;;;;5.33;5.33;;;;;24.95;51.55;100608.34;4959855;28;47881;-71
2023/06/18 04:55:40;;;;;;;;;5.33;4.67;;;;;24.86;51.64;100597.03;4959853;28;45467;-71
2023/06/18 04:58:05;;;;;;;;;6.67;5.67;;;;;24.89;51.96;100609.31;4977371;28;45469;-71
2023/06/18 05:00:33;;;;;;;;;6.33;5.67;;;;;24.76;52.28;100588.66;4977660;28;45437;-72
2023/06/18 05:02:58;;;;;;;;;7.00;4.00;;;;;24.95;52.25;100613.78;4977146;28;45530;-72
2023/06/18 05:05:23;;;;;;;;;3.67;3.00;;;;;24.99;52.11;100609.53;4977170;28;46039;-71
2023/06/18 05:07:50;;;;;;;;;5.33;4.00;;;;;24.94;51.93;100595.81;4977530;28;45333;-71
2023/06/18 05:10:16;;;;;;;;;4.33;4.33;;;;;25.03;51.88;100610.72;4977833;28;45459;-72
2023/06/18 05:12:41;;;;;;;;;4.00;4.00;;;;;25.01;51.86;100599.25;4976850;28;45572;-73
2023/06/18 05:15:07;;;;;;;;;4.00;4.00;;;;;25.03;52.09;100610.72;4976909;28;45508;-71
2023/06/18 05:17:34;;;;;;;;;5.00;4.00;;;;;24.92;52.43;100597.13;4977167;28;45231;-72
2023/06/18 05:20:01;;;;;;;;;3.67;3.67;;;;;25.08;52.78;100629.03;4977155;28;45272;-71
2023/06/18 05:22:26;;;;;;;;;5.00;5.00;;;;;24.97;52.42;100603.47;4976776;28;46562;-71
2023/06/18 05:24:51;;;;;;;;;6.67;5.67;;;;;25.11;52.56;100626.66;4977080;28;45459;-72
2023/06/18 05:27:17;;;;;;;;;8.00;6.33;;;;;24.65;52.85;100548.75;4977154;28;45384;-72
2023/06/18 05:29:42;;;;;;;;;5.33;5.33;;;;;25.11;52.88;100618.50;4977659;28;45315;-73
2023/06/18 05:32:09;;;;;;;;;6.67;6.67;;;;;25.01;52.86;100601.13;4977142;28;45683;-71
2023/06/18 05:34:34;;;;;;;;;4.00;4.00;;;;;25.08;52.79;100624.41;4977122;28;45399;-70
2023/06/18 05:37:00;;;;;;;;;8.67;8.67;;;;;24.99;54.01;100625.84;4976640;28;45363;-71
2023/06/18 05:39:25;;;;;;;;;11.00;11.00;;;;;24.87;54.57;100614.19;4977282;28;45402;-72
2023/06/18 05:41:50;;;;;;;;;8.00;8.00;;;;;24.78;54.47;100611.00;4976668;28;45976;-71
2023/06/18 05:44:16;;;;;;;;;7.00;7.00;;;;;24.64;54.67;100600.66;4959208;28;45320;-72
2023/06/18 05:46:41;;;;;;;;;8.00;7.33;;;;;24.77;54.29;100616.66;4977156;28;45409;-72
2023/06/18 05:49:06;;;;;;;;;9.00;9.00;;;;;24.35;54.16;100565.25;4977076;28;45326;-72
2023/06/18 05:51:32;;;;;;;;;9.67;7.67;;;;;24.39;55.16;100593.59;4976654;28;46361;-73
2023/06/18 05:53:57;;;;;;;;;7.67;7.67;;;;;24.45;55.46;100611.66;4976612;28;45964;-71
2023/06/18 05:56:22;;;;;;;;;10.00;9.00;;;;;24.50;55.32;100629.97;4976766;28;45445;-71
2023/06/18 05:58:48;;;;;;;;;8.00;7.33;;;;;24.24;55.03;100595.94;4977057;28;45418;-73
2023/06/18 06:01:14;;;;;;;;;5.67;5.67;;;;;24.50;54.76;100643.56;4959306;28;46493;-72
2023/06/18 06:03:39;;;;;;;;;10.00;10.00;;;;;24.49;54.71;100647.34;4980081;28;45218;-72
2023/06/18 06:06:05;;;;;;;;;10.00;10.00;;;;;24.56;55.26;100639.88;4978727;28;45301;-72
2023/06/18 06:08:30;;;;;;;;;6.00;6.00;;;;;24.61;55.04;100640.00;4980480;28;45370;-72
2023/06/18 06:10:56;;;;;;;;;5.00;4.33;;;;;24.27;54.71;100584.59;4979921;28;45876;-72
2023/06/18 06:13:21;;;;;;;;;7.33;7.33;;;;;24.57;54.42;100617.91;4980168;28;45204;-73
2023/06/18 06:15:46;;;;;;;;;7.00;7.00;;;;;24.71;54.36;100644.84;4962595;28;45273;-71
2023/06/18 06:18:12;;;;;;;;;7.33;5.33;;;;;24.44;54.40;100596.44;4980186;28;45540;-72
2023/06/18 06:20:37;;;;;;;;;7.67;6.67;;;;;24.38;54.45;100580.22;4979581;28;45560;-74
2023/06/18 06:23:02;;;;;;;;;7.00;7.00;;;;;24.54;54.11;100603.97;4979778;28;45436;-71
2023/06/18 06:25:28;;;;;;;;;6.67;6.33;;;;;24.80;54.14;100637.94;4980108;28;45305;-72
2023/06/18 06:27:53;;;;;;;;;9.33;9.00;;;;;24.83;54.77;100634.78;4980126;28;45370;-71
2023/06/18 06:30:19;;;;;;;;;11.33;10.33;;;;;24.80;54.55;100624.34;4962038;28;47657;-72
2023/06/18 06:32:44;;;;;;;;;9.33;9.33;;;;;24.83;55.08;100632.03;4979512;28;45356;-72
2023/06/18 06:35:10;;;;;;;;;8.67;8.67;;;;;24.83;55.55;100632.03;4979815;28;45398;-72
2023/06/18 06:37:35;;;;;;;;;8.33;8.33;;;;;24.77;55.39;100625.66;4979322;28;45510;-71
2023/06/18 06:40:00;;;;;;;;;12.00;10.00;;;;;24.71;55.36;100604.88;4979600;28;45525;-73
2023/06/18 06:42:26;;;;;;;;;11.00;8.67;;;;;24.74;55.21;100617.16;4979387;28;45314;-70
2023/06/18 06:44:52;;;;;;;;;7.33;6.00;;;;;24.79;55.13;100619.97;4979658;28;45310;-71
2023/06/18 06:47:17;;;;;;;;;10.00;8.67;;;;;24.84;55.17;100618.22;4979770;28;45552;-70
2023/06/18 06:49:44;;;;;;;;;10.67;10.33;;;;;24.86;54.88;100624.22;4961557;28;46803;-72
2023/06/18 06:52:10;;;;;;;;;13.33;10.67;;;;;24.84;55.33;100614.66;4977771;28;45609;-72
2023/06/18 06:54:35;;;;;;;;;13.67;13.67;;;;;24.72;56.02;100605.69;4979155;28;45500;-73
2023/06/18 06:57:01;;;;;;;;;13.67;12.33;;;;;24.80;56.62;100627.06;4979137;28;45275;-71
2023/06/18 06:59:26;;;;;;;;;13.67;13.67;;;;;24.31;56.41;100553.19;4978866;28;46039;-70
2023/06/18 07:01:51;;;;;;;;;16.67;15.00;;;;;24.77;56.35;100627.56;4978446;28;63354;-71
2023/06/18 07:04:17;;;;;;;;;14.00;14.00;;;;;24.67;56.96;100627.34;4978709;28;52880;-71
2023/06/18 07:06:42;;;;;;;;;15.00;14.00;;;;;24.74;56.49;100622.59;4979253;28;45273;-71
2023/06/18 07:09:08;;;;;;;;;18.00;14.33;;;;;24.51;56.28;100597.13;4978704;28;45539;-71
2023/06/18 07:11:36;;;;;;;;;13.33;13.33;;;;;24.65;56.65;100615.91;4961407;28;45805;-72
2023/06/18 07:14:02;;;;;;;;;16.33;14.33;;;;;24.70;56.30;100637.75;4977859;28;45348;-72
2023/06/18 07:16:27;;;;;;;;;14.00;11.67;;;;;24.75;56.12;100630.50;4977664;28;45271;-71
2023/06/18 07:18:53;;;;;;;;;17.00;14.33;;;;;24.81;56.09;100629.53;4978548;28;46655;-71
2023/06/18 07:21:18;;;;;;;;;11.33;11.33;;;;;24.75;55.81;100607.94;4977985;28;53768;-72
2023/06/18 07:23:44;;;;;;;;;11.33;11.33;;;;;24.89;55.51;100617.47;4978861;28;45552;-70
2023/06/18 07:26:09;;;;;;;;;14.67;9.67;;;;;24.57;55.29;100558.09;4978983;28;45626;-72
2023/06/18 07:28:35;;;;;;;;;16.67;13.33;;;;;24.95;53.89;100613.78;4978848;28;45947;-72
2023/06/18 07:31:02;;;;;;;;;14.33;14.33;;;;;25.03;54.72;100610.72;4979127;28;45215;-72
2023/06/18 07:33:27;;;;;;;;;14.33;14.33;;;;;24.77;53.43;100556.84;4978989;28;45397;-71
2023/06/18 07:35:53;;;;;;;;;18.00;17.00;;;;;25.06;53.67;100593.09;4978602;28;45524;-72
2023/06/18 07:38:18;;;;;;;;;12.00;12.00;;;;;25.30;53.63;100627.28;4977972;28;45631;-72
2023/06/18 07:40:43;;;;;;;;;11.33;11.33;;;;;25.54;53.03;100635.31;4978174;28;45421;-73
2023/06/18 07:43:09;;;;;;;;;12.00;12.00;;;;;25.86;52.99;100630.19;4978470;28;45473;-73
2023/06/18 07:45:35;;;;;;;;;11.00;11.00;;;;;25.82;51.63;100561.75;4978504;28;45471;-72
2023/06/18 07:48:00;;;;;;;;;13.33;12.67;;;;;26.57;50.90;100620.34;4978355;28;45540;-73
2023/06/18 07:50:26;;;;;;;;;13.00;11.33;;;;;26.88;50.05;100622.41;4978297;28;45330;-73
2023/06/18 07:52:52;;;;;;;;;18.67;14.00;;;;;27.11;49.12;100620.50;4960485;28;45354;-72
2023/06/18 07:55:17;;;;;;;;;14.67;13.00;;;;;27.11;48.53;100634.16;4978571;28;45544;-71
2023/06/18 07:57:42;;;;;;;;;15.33;15.33;;;;;27.13;48.81;100623.81;4977906;28;53813;-71
2023/06/18 08:00:08;;;;;;;;;16.00;16.00;;;;;27.14;49.12;100633.63;4977848;28;45512;-72
2023/06/18 08:02:34;;;;;;;;;12.33;11.00;;;;;27.15;48.66;100627.09;4960465;28;45327;-72
2023/06/18 08:04:59;;;;;;;;;15.33;13.33;;;;;27.12;48.37;100622.16;4978051;28;46415;-73
2023/06/18 08:07:25;;;;;;;;;13.67;13.67;;;;;27.09;48.52;100618.03;4978094;28;46215;-71
2023/06/18 08:09:50;;;;;;;;;12.33;12.33;;;;;27.15;48.79;100616.19;4978559;28;45263;-73
2023/06/18 08:12:16;;;;;;;;;13.00;13.00;;;;;27.30;48.66;100619.06;4978671;28;45172;-73
2023/06/18 08:14:45;;;;;;;;;12.00;11.33;;;;;27.49;47.14;100614.91;4978337;28;45309;-71
2023/06/18 08:17:15;;;;;;;;;12.00;12.00;;;;;27.56;45.71;100607.31;4977961;28;46968;-71
2023/06/18 08:19:44;;;;;;;;;14.67;14.67;;;;;27.36;46.40;100598.09;4977823;28;45235;-72
2023/06/18 08:22:10;;;;;;;;;12.67;12.67;;;;;26.83;45.86;100518.69;4977522;28;45441;-74
2023/06/18 08:24:35;;;;;;;;;13.00;13.00;;;;;27.41;46.07;100606.34;4977765;28;45267;-72
2023/06/18 08:27:01;;;;;;;;;14.33;13.67;;;;;27.45;45.62;100610.22;4960496;28;45246;-73
2023/06/18 08:29:26;;;;;;;;;16.00;16.00;;;;;27.27;45.56;100597.75;4978217;28;45452;-73
2023/06/18 08:31:51;;;;;;;;;12.00;10.00;;;;;27.26;45.68;100590.66;4960221;28;45331;-73
2023/06/18 08:34:17;;;;;;;;;12.00;11.00;;;;;27.26;45.66;100602.41;4978055;28;45252;-70
2023/06/18 08:36:46;;;;;;;;;17.33;16.00;;;;;27.21;45.04;100594.13;4959565;28;50796;-70
2023/06/18 08:39:11;;;;;;;;;15.00;15.00;;;;;27.16;45.47;100585.06;4976289;28;45541;-73
2023/06/18 08:41:40;;;;;;;;;12.67;12.67;;;;;26.83;45.76;100545.97;4977955;28;45425;-71
2023/06/18 08:44:05;;;;;;;;;14.67;11.00;;;;;27.20;45.72;100592.50;4977668;28;45405;-71
2023/06/18 08:46:34;;;;;;;;;14.00;12.33;;;;;27.23;45.58;100596.59;4976086;28;48222;-71
2023/06/18 08:49:00;;;;;;;;;13.33;12.00;;;;;26.88;45.60;100537.84;4959957;28;45475;-72
2023/06/18 08:51:26;;;;;;;;;14.33;13.00;;;;;27.13;46.00;100583.69;4978471;28;45223;-73
2023/06/18 08:54:04;;;;;;;;;16.67;13.67;;;;;26.93;45.89;100586.16;4977831;28;45259;-72
2023/06/18 08:56:31;;;;;;;;;11.00;11.00;;;;;26.96;46.26;100586.47;4960473;28;45549;-73
2023/06/18 08:58:57;;;;;;;;;13.00;11.67;;;;;26.88;46.21;100581.50;4975798;28;45387;-73
2023/06/18 09:01:26;;;;;;;;;13.33;13.33;;;;;26.90;46.37;100587.50;4977645;28;45258;-70
2023/06/18 09:03:54;;;;;;;;;14.33;11.00;;;;;26.87;45.95;100581.75;4977460;28;45402;-69
2023/06/18 09:06:22;;;;;;;;;12.67;12.67;;;;;26.79;46.18;100585.72;4976767;28;45722;-70
2023/06/18 09:08:47;;;;;;;;;15.00;12.00;;;;;26.59;46.59;100575.41;4959838;28;45574;-70
2023/06/18 09:11:13;;;;;;;;;12.00;12.00;;;;;26.48;47.10;100568.19;4959979;28;45279;-70
2023/06/18 09:13:42;;;;;;;;;11.00;11.00;;;;;26.48;47.25;100572.81;4977598;28;45163;-72
2023/06/18 09:16:09;;;;;;;;;11.00;11.00;;;;;26.38;47.67;100563.41;4977343;28;46469;-72
2023/06/18 09:18:34;;;;;;;;;13.00;12.33;;;;;26.44;47.77;100577.97;4959352;28;45364;-72
2023/06/18 09:21:00;;;;;;;;;14.67;14.67;;;;;26.45;47.55;100578.78;4959070;28;45307;-73
2023/06/18 09:23:25;;;;;;;;;14.00;13.67;;;;;26.39;48.29;100572.41;4959585;28;45323;-71
2023/06/18 09:25:56;;;;;;;;;14.67;13.00;;;;;26.42;48.22;100579.25;4977173;28;45660;-72
2023/06/18 09:28:24;;;;;;;;;15.33;15.00;;;;;26.36;48.31;100571.03;4959473;28;46056;-71
2023/06/18 09:31:00;;;;;;;;;11.00;10.00;;;;;26.34;48.82;100556.81;4977244;28;45458;-71
2023/06/18 09:33:36;;;;;;;;;15.00;15.00;;;;;26.45;48.85;100563.25;4977252;28;45515;-70
2023/06/18 09:36:07;;;;;;;;;16.33;15.33;;;;;26.56;48.72;100559.56;4976466;28;45778;-71
2023/06/18 09:38:42;;;;;;;;;16.67;14.67;;;;;26.64;48.70;100545.50;4977696;28;45626;-71
2023/06/18 09:41:13;;;;;;;;;16.67;14.00;;;;;26.79;48.50;100558.44;4979633;28;45566;-70
2023/06/18 09:43:41;;;;;;;;;18.67;18.67;;;;;26.86;48.53;100548.19;4959012;28;45529;-72
2023/06/18 09:46:08;;;;;;;;;15.33;15.33;;;;;26.98;48.62;100539.84;4959288;28;45620;-71
2023/06/18 09:48:35;;;;;;;;;21.33;18.33;;;;;27.11;47.56;100544.09;4957192;28;45502;-71
2023/06/18 09:51:01;;;;;;;;;17.33;17.33;;;;;27.40;48.27;100553.63;4941111;28;45444;-70
2023/06/18 09:53:27;;;;;;;;;18.67;16.33;;;;;27.64;47.94;100554.16;4959973;28;45558;-71
2023/06/18 09:55:52;;;;;;;;;17.67;16.00;;;;;27.81;47.22;100551.25;4959081;28;46283;-70
2023/06/18 09:58:17;;;;;;;;;18.00;17.67;;;;;28.06;47.21;100556.09;4957886;28;45943;-70
2023/06/18 10:01:02;;;;;;;;;16.00;14.67;;;;;28.15;46.19;100555.31;4960281;28;45376;-72
2023/06/18 10:03:27;;;;;;;;;20.67;18.67;;;;;28.03;46.25;100551.97;4960655;28;45446;-71
2023/06/18 10:05:53;;;;;;;;;17.67;17.67;;;;;27.54;45.98;100470.19;4959974;28;45419;-72
2023/06/18 10:08:19;;;;;;;;;20.00;17.33;;;;;28.00;44.96;100551.66;4960527;28;45304;-70
2023/06/18 10:10:45;;;;;;;;;18.67;17.00;;;;;27.80;45.38;100536.78;4960490;28;45491;-71
2023/06/18 10:13:12;;;;;;;;;18.33;18.33;;;;;27.93;45.69;100546.44;4960613;28;45244;-72
2023/06/18 10:15:40;;;;;;;;;17.33;16.33;;;;;28.10;45.01;100552.56;4960139;28;45829;-72
2023/06/18 10:18:11;;;;;;;;;16.33;14.33;;;;;28.23;45.58;100540.31;4960037;28;45218;-71
2023/06/18 10:20:38;;;;;;;;;17.00;17.00;;;;;28.23;44.25;100507.50;4958342;28;45429;-76
2023/06/18 10:23:06;;;;;;;;;16.00;16.00;;;;;28.58;44.34;100539.69;4958880;28;45466;-72
2023/06/18 10:25:32;;;;;;;;;13.00;13.00;;;;;28.75;43.54;100532.06;4960039;28;46565;-70
2023/06/18 10:27:59;;;;;;;;;15.00;15.00;;;;;28.80;42.03;100517.56;4959685;28;45258;-72
2023/06/18 10:30:25;;;;;;;;;16.00;16.00;;;;;28.86;42.03;100526.66;4958713;28;45523;-71
2023/06/18 10:32:51;;;;;;;;;20.00;18.67;;;;;28.85;42.17;100520.34;4960211;28;45629;-74
2023/06/18 10:35:17;;;;;;;;;19.67;19.33;;;;;28.98;42.07;100525.31;4959671;28;46325;-73
2023/06/18 10:37:44;;;;;;;;;21.00;17.33;;;;;29.03;41.94;100516.28;4941552;28;45544;-71
2023/06/18 10:40:11;;;;;;;;;29.00;26.33;;;;;29.14;41.08;100517.94;4959614;28;45524;-72
2023/06/18 10:42:36;;;;;;;;;32.67;30.33;;;;;29.11;41.46;100523.16;4959864;28;45434;-72
2023/06/18 10:45:10;;;;;;;;;30.67;28.00;;;;;29.16;41.80;100513.00;4959084;28;46512;-72
2023/06/18 10:47:36;;;;;;;;;24.67;20.33;;;;;29.37;41.15;100511.09;4958210;28;46108;-73
2023/06/18 10:50:07;;;;;;;;;19.67;18.33;;;;;29.43;41.43;100511.91;4958259;28;45569;-71
2023/06/18 10:52:37;;;;;;;;;19.00;18.67;;;;;29.37;41.18;100498.22;4959691;28;45399;-70
2023/06/18 10:55:06;;;;;;;;;16.33;16.33;;;;;29.54;41.44;100510.84;4959429;28;46863;-72
2023/06/18 10:57:34;;;;;;;;;18.67;18.33;;;;;29.32;40.93;100495.50;4959416;28;45261;-70
2023/06/18 11:00:15;;;;;;;;;20.67;17.33;;;;;29.21;41.77;100484.81;4959465;28;45515;-71
2023/06/18 11:02:41;;;;;;;;;22.00;19.67;;;;;29.36;40.59;100504.81;4959365;28;45598;-74
2023/06/18 11:05:13;;;;;;;;;18.33;16.33;;;;;29.09;41.46;100471.41;4959178;28;45289;-75
2023/06/18 11:07:40;;;;;;;;;20.00;20.00;;;;;29.30;41.61;100492.22;4957935;28;45630;-73
2023/06/18 11:10:06;;;;;;;;;19.33;16.67;;;;;29.52;41.42;100496.63;4959110;28;45754;-72
2023/06/18 11:12:36;;;;;;;;;23.00;21.00;;;;;29.23;40.08;100441.53;4959098;28;45181;-72